Time;durP1;ratioP1;P1;durP2;ratioP2;P2;SDS_P1;SDS_P2;PMS_P1;PMS_P2;Temp;Humidity;BMP_temperature;BMP_pressure;BME280_temperature;BME280_humidity;BME280_pressure;Samples;Min_cycle;Max_cycle;Signal;HPM_P1;HPM_P2
2024/03/19 00:01:45;;;;;;;23.02;7.28;;;;;;;7.14;100.00;97530.25;5028723;28;20876;-81
2024/03/19 00:04:11;;;;;;;21.73;7.63;;;;;;;7.16;100.00;97530.03;5039025;28;20403;-81
2024/03/19 00:06:38;;;;;;;17.52;6.32;;;;;;;7.16;100.00;97530.84;5037438;28;20399;-82
2024/03/19 00:09:04;;;;;;;13.32;5.32;;;;;;;7.17;100.00;97523.75;5029474;28;20813;-81
2024/03/19 00:11:30;;;;;;;10.88;4.90;;;;;;;7.18;100.00;97534.06;5037840;28;20859;-79
2024/03/19 00:13:57;;;;;;;12.68;4.70;;;;;;;7.21;100.00;97530.19;5031665;28;20419;-82
2024/03/19 00:16:24;;;;;;;27.27;7.10;;;;;;;7.21;100.00;97536.25;5037691;28;20406;-82
2024/03/19 00:18:50;;;;;;;20.85;6.35;;;;;;;7.19;100.00;97537.50;5028907;28;20399;-80
2024/03/19 00:21:17;;;;;;;16.63;5.40;;;;;;;7.17;100.00;97537.72;5032313;28;20400;-80
2024/03/19 00:23:43;;;;;;;14.98;5.82;;;;;;;7.16;100.00;97535.28;5033295;28;20459;-82
2024/03/19 00:26:09;;;;;;;17.98;6.10;;;;;;;7.12;100.00;97540.22;5025229;28;20404;-82
2024/03/19 00:28:35;;;;;;;14.30;5.68;;;;;;;7.09;100.00;97540.66;5032754;28;20422;-81
2024/03/19 00:31:03;;;;;;;14.40;5.72;;;;;;;7.04;100.00;97539.75;5029619;28;20426;-80
2024/03/19 00:33:29;;;;;;;14.90;5.95;;;;;;;6.98;100.00;97530.91;5043329;28;20407;-82
2024/03/19 00:35:56;;;;;;;13.73;5.60;;;;;;;6.92;100.00;97529.97;5033559;28;20438;-82
2024/03/19 00:38:22;;;;;;;16.23;5.17;;;;;;;6.91;100.00;97533.66;5038134;28;20438;-81
2024/03/19 00:40:48;;;;;;;11.03;4.40;;;;;;;6.91;100.00;97533.66;5026539;28;20400;-82
2024/03/19 00:43:15;;;;;;;11.10;4.50;;;;;;;6.90;100.00;97534.66;5040821;28;20876;-80
2024/03/19 00:45:41;;;;;;;9.77;4.00;;;;;;;6.88;100.00;97539.34;5047657;28;20391;-79
2024/03/19 00:48:08;;;;;;;10.15;3.83;;;;;;;6.86;100.00;97535.31;5038885;28;20414;-81
2024/03/19 00:50:34;;;;;;;7.15;3.40;;;;;;;6.83;100.00;97533.97;5047435;28;20429;-79
2024/03/19 00:53:01;;;;;;;9.17;3.73;;;;;;;6.79;100.00;97526.72;5047646;28;20458;-79
2024/03/19 00:55:27;;;;;;;5.53;2.95;;;;;;;6.77;100.00;97528.75;5039193;28;20484;-79
2024/03/19 00:57:53;;;;;;;5.07;2.73;;;;;;;6.76;100.00;97527.97;5047362;28;20391;-81
2024/03/19 01:00:19;;;;;;;7.57;3.35;;;;;;;6.76;100.00;97522.72;5039104;28;20779;-82
2024/03/19 01:02:47;;;;;;;6.95;3.40;;;;;;;6.76;100.00;97524.56;5047182;28;21235;-79
2024/03/19 01:05:14;;;;;;;4.93;3.05;;;;;;;6.77;100.00;97518.22;5038186;28;20399;-80
2024/03/19 01:07:41;;;;;;;7.35;3.38;;;;;;;6.83;100.00;97520.81;5045960;28;20437;-78
2024/03/19 01:10:08;;;;;;;7.32;3.80;;;;;;;6.86;100.00;97522.97;5030237;28;20452;-79
2024/03/19 01:12:35;;;;;;;8.70;3.90;;;;;;;6.89;100.00;97525.16;5039334;28;20476;-79
2024/03/19 01:15:01;;;;;;;6.70;3.40;;;;;;;6.93;100.00;97523.69;5046221;28;20387;-79
2024/03/19 01:17:28;;;;;;;8.32;3.60;;;;;;;6.99;100.00;97519.38;5038257;28;20505;-79
2024/03/19 01:19:54;;;;;;;10.48;3.65;;;;;;;7.00;100.00;97520.94;5037498;28;20400;-79
2024/03/19 01:22:21;;;;;;;9.13;3.63;;;;;;;7.00;100.00;97520.94;5040480;28;20391;-79
2024/03/19 01:24:47;;;;;;;5.35;3.40;;;;;;;7.02;100.00;97515.47;5039117;28;20387;-81
2024/03/19 01:27:13;;;;;;;8.73;3.40;;;;;;;6.99;100.00;97506.97;5039028;28;20811;-79
2024/03/19 01:29:40;;;;;;;5.13;2.75;;;;;;;6.97;100.00;97514.31;5038970;28;20454;-80
2024/03/19 01:32:06;;;;;;;4.00;2.60;;;;;;;6.97;100.00;97511.69;5027265;28;20899;-82
2024/03/19 01:34:32;;;;;;;8.65;3.55;;;;;;;6.97;100.00;97508.25;5043667;28;20395;-81
2024/03/19 01:36:59;;;;;;;10.02;3.92;;;;;;;6.95;100.00;97499.78;5038709;28;20478;-80
2024/03/19 01:39:26;;;;;;;12.00;3.92;;;;;;;6.87;100.00;97505.34;5048170;28;20437;-81
2024/03/19 01:41:54;;;;;;;9.80;3.88;;;;;;;6.77;100.00;97500.63;5039069;28;20403;-82
2024/03/19 01:44:21;;;;;;;8.55;4.05;;;;;;;6.68;100.00;97503.81;5047556;28;20429;-81
2024/03/19 01:46:47;;;;;;;8.73;3.40;;;;;;;6.56;100.00;97498.50;5047926;28;20403;-82
2024/03/19 01:49:14;;;;;;;8.23;3.67;;;;;;;6.47;100.00;97497.19;5038215;28;20394;-81
2024/03/19 01:51:42;;;;;;;7.17;2.80;;;;;;;6.38;100.00;97495.91;5029700;28;20429;-81
2024/03/19 01:54:09;;;;;;;6.35;3.38;;;;;;;6.28;100.00;97491.16;5037309;28;20409;-80
2024/03/19 01:56:37;;;;;;;9.18;3.80;;;;;;;6.31;100.00;97498.63;5042241;28;20393;-82
2024/03/19 01:59:03;;;;;;;8.98;3.85;;;;;;;6.24;100.00;97497.88;5046331;28;20485;-80
2024/03/19 02:01:30;;;;;;;7.47;3.63;;;;;;;6.15;100.00;97497.38;5046582;28;20407;-80
2024/03/19 02:03:56;;;;;;;8.07;3.45;;;;;;;6.08;100.00;97499.28;5046732;28;20429;-82
2024/03/19 02:06:22;;;;;;;7.93;3.40;;;;;;;6.05;100.00;97496.28;5040476;28;20477;-81
2024/03/19 02:08:59;;;;;;;10.60;3.60;;;;;;;6.02;100.00;97489.63;5036230;28;20568;-81
2024/03/19 02:11:25;;;;;;;14.80;4.43;;;;;;;5.98;100.00;97501.63;5046970;28;20403;-80
2024/03/19 02:13:53;;;;;;;8.85;3.80;;;;;;;5.93;100.00;97500.69;5046546;28;20407;-82
2024/03/19 02:16:20;;;;;;;8.10;4.13;;;;;;;5.91;100.00;97492.19;5045759;28;20407;-81
2024/03/19 02:18:53;;;;;;;10.60;4.85;;;;;;;5.82;100.00;97494.28;5048333;28;20430;-82
2024/03/19 02:21:20;;;;;;;8.77;4.13;;;;;;;5.77;100.00;97489.69;5054883;28;20407;-81
2024/03/19 02:23:48;;;;;;;13.77;5.30;;;;;;;5.82;100.00;97500.34;5041335;28;20396;-81
2024/03/19 02:26:14;;;;;;;11.70;4.60;;;;;;;5.71;100.00;97498.41;5044448;28;20848;-82
2024/03/19 02:28:40;;;;;;;15.73;5.50;;;;;;;5.69;100.00;97487.34;5035682;28;20420;-79
2024/03/19 02:31:06;;;;;;;12.68;5.63;;;;;;;5.67;100.00;97489.38;5027147;28;20410;-80
2024/03/19 02:33:32;;;;;;;15.52;5.68;;;;;;;5.61;100.00;97478.94;5043495;28;20426;-79
2024/03/19 02:35:59;;;;;;;13.27;5.47;;;;;;;5.58;100.00;97489.84;5034680;28;20766;-79
2024/03/19 02:38:27;;;;;;;17.35;6.22;;;;;;;5.65;100.00;97486.16;5037769;28;20971;-80
2024/03/19 02:40:54;;;;;;;16.95;7.07;;;;;;;5.65;100.00;97480.91;5022959;28;20396;-80
2024/03/19 02:43:20;;;;;;;19.23;6.35;;;;;;;5.59;100.00;97481.78;5022896;28;20401;-78
2024/03/19 02:45:47;;;;;;;15.43;6.50;;;;;;;5.63;100.00;97479.53;5032030;28;20400;-78
2024/03/19 02:48:14;;;;;;;16.65;6.82;;;;;;;5.54;100.00;97480.81;5044495;28;20799;-81
2024/03/19 02:50:40;;;;;;;10.10;5.45;;;;;;;5.46;100.00;97474.03;5037679;28;20458;-83
2024/03/19 02:53:06;;;;;;;15.18;6.30;;;;;;;5.42;100.00;97470.22;5028271;28;20396;-81
2024/03/19 02:55:32;;;;;;;10.95;5.68;;;;;;;5.39;100.00;97478.53;5045188;28;20403;-81
2024/03/19 02:58:00;;;;;;;9.48;4.93;;;;;;;5.33;100.00;97474.97;5028849;28;20427;-82
2024/03/19 03:00:26;;;;;;;10.10;5.07;;;;;;;5.30;100.00;97483.25;5039323;28;20432;-82
2024/03/19 03:02:52;;;;;;;10.10;4.90;;;;;;;5.30;100.00;97477.19;5035075;28;20401;-82
2024/03/19 03:05:18;;;;;;;16.17;6.60;;;;;;;5.38;100.00;97485.59;5034339;28;20473;-82
2024/03/19 03:07:44;;;;;;;22.98;7.82;;;;;;;5.39;100.00;97489.03;5044618;28;20492;-82
2024/03/19 03:10:10;;;;;;;18.85;7.60;;;;;;;5.33;100.00;97487.28;5047802;28;20459;-82
2024/03/19 03:12:36;;;;;;;17.20;7.40;;;;;;;5.31;100.00;97487.50;5045027;28;20427;-82
2024/03/19 03:15:05;;;;;;;20.92;7.47;;;;;;;5.32;100.00;97488.28;5036718;28;20399;-82
2024/03/19 03:17:31;;;;;;;21.92;8.20;;;;;;;5.27;100.00;97486.28;5041071;28;20403;-81
2024/03/19 03:19:57;;;;;;;20.50;8.32;;;;;;;5.21;100.00;97499.47;5036195;28;20397;-82
2024/03/19 03:22:23;;;;;;;24.63;8.50;;;;;;;5.17;100.00;97488.63;5038788;28;20813;-81
2024/03/19 03:24:50;;;;;;;17.63;7.40;;;;;;;5.14;100.00;97494.28;5041259;28;20899;-83
2024/03/19 03:27:17;;;;;;;17.73;7.00;;;;;;;5.12;100.00;97488.44;5042891;28;20415;-82
2024/03/19 03:29:43;;;;;;;15.63;6.82;;;;;;;5.09;100.00;97488.88;5044114;28;20402;-82
2024/03/19 03:32:10;;;;;;;23.05;7.65;;;;;;;5.12;100.00;97487.63;5040141;28;20413;-81
2024/03/19 03:34:37;;;;;;;24.90;9.02;;;;;;;5.12;100.00;97492.88;5040222;28;20399;-81
2024/03/19 03:37:06;;;;;;;22.38;8.60;;;;;;;5.10;100.00;97494.94;5043412;28;20427;-82
2024/03/19 03:39:32;;;;;;;18.83;7.80;;;;;;;5.08;100.00;97487.25;5043679;28;20399;-82
2024/03/19 03:41:58;;;;;;;22.30;8.57;;;;;;;5.06;100.00;97499.78;5043955;28;20467;-81
2024/03/19 03:44:24;;;;;;;24.65;9.50;;;;;;;5.02;100.00;97499.41;5043473;28;20437;-83
2024/03/19 03:46:50;;;;;;;26.50;9.15;;;;;;;4.98;100.00;97492.16;5039286;28;20422;-81
2024/03/19 03:49:18;;;;;;;28.92;10.85;;;;;;;5.05;100.00;97496.34;5035809;28;20453;-82
2024/03/19 03:51:44;;;;;;;30.60;10.25;;;;;;;5.04;100.00;97493.94;5042402;28;20407;-82
2024/03/19 03:54:10;;;;;;;27.48;9.27;;;;;;;4.99;100.00;97501.66;5041771;28;20435;-80
2024/03/19 03:56:36;;;;;;;25.40;8.88;;;;;;;4.95;100.00;97503.09;5041910;28;20777;-82
2024/03/19 03:59:04;;;;;;;20.05;7.95;;;;;;;4.93;100.00;97505.13;5027560;28;20494;-81
2024/03/19 04:01:30;;;;;;;17.35;7.35;;;;;;;4.88;100.00;97508.41;5043006;28;20407;-82
2024/03/19 04:03:56;;;;;;;20.35;7.80;;;;;;;4.89;100.00;97511.78;5042537;28;20492;-79
2024/03/19 04:06:23;;;;;;;19.63;7.45;;;;;;;4.85;100.00;97513.25;5040807;28;20396;-80
2024/03/19 04:08:50;;;;;;;21.60;8.60;;;;;;;4.80;100.00;97516.50;5039942;28;20427;-79
2024/03/19 04:11:16;;;;;;;23.55;9.02;;;;;;;4.86;100.00;97513.03;5041038;28;20400;-80
2024/03/19 04:13:42;;;;;;;29.85;10.20;;;;;;;4.80;100.00;97513.09;5041113;28;20533;-79
2024/03/19 04:16:08;;;;;;;28.27;10.00;;;;;;;4.77;100.00;97516.94;5040234;28;20904;-80
2024/03/19 04:18:34;;;;;;;21.15;8.43;;;;;;;4.75;100.00;97516.31;5039898;28;20414;-79
2024/03/19 04:21:00;;;;;;;24.58;8.45;;;;;;;4.74;100.00;97519.94;5037436;28;20399;-79
2024/03/19 04:23:28;;;;;;;20.55;7.93;;;;;;;4.67;100.00;97520.00;5035438;28;20552;-81
2024/03/19 04:25:54;;;;;;;21.60;7.93;;;;;;;4.66;100.00;97517.59;5038494;28;20439;-78
2024/03/19 04:28:20;;;;;;;20.15;7.70;;;;;;;4.65;100.00;97527.28;5028837;28;20429;-80
2024/03/19 04:30:46;;;;;;;23.52;8.63;;;;;;;4.68;100.00;97523.44;5023506;28;20443;-83
2024/03/19 04:33:12;;;;;;;23.02;8.95;;;;;;;4.62;100.00;97524.25;5041981;28;20411;-81
2024/03/19 04:35:38;;;;;;;21.30;8.57;;;;;;;4.61;100.00;97515.59;5042257;28;20418;-81
2024/03/19 04:38:04;;;;;;;23.67;8.75;;;;;;;4.54;100.00;97514.81;5042398;28;20399;-80
2024/03/19 04:40:32;;;;;;;20.33;7.88;;;;;;;4.53;100.00;97517.66;5042054;28;20411;-82
2024/03/19 04:42:59;;;;;;;27.30;9.70;;;;;;;4.49;100.00;97519.91;5040943;28;20430;-80
2024/03/19 04:45:25;;;;;;;28.30;9.18;;;;;;;4.48;100.00;97517.47;5041583;28;20486;-82
2024/03/19 04:47:51;;;;;;;25.20;9.40;;;;;;;4.51;100.00;97511.84;5041640;28;20504;-82
2024/03/19 04:50:17;;;;;;;30.90;10.57;;;;;;;4.54;100.00;97516.66;5044128;28;20417;-79
2024/03/19 04:52:44;;;;;;;25.30;9.32;;;;;;;4.48;100.00;97517.47;5041628;28;20418;-80
2024/03/19 04:55:11;;;;;;;23.17;8.50;;;;;;;4.43;100.00;97515.50;5047857;28;20403;-79
2024/03/19 04:57:39;;;;;;;26.13;10.02;;;;;;;4.42;100.00;97508.66;5037675;28;20440;-80
2024/03/19 05:00:11;;;;;;;21.63;8.50;;;;;;;4.40;100.00;97508.03;5032466;28;20772;-78
2024/03/19 05:02:37;;;;;;;29.15;10.32;;;;;;;4.46;100.00;97509.03;5036664;28;20462;-81
2024/03/19 05:05:04;;;;;;;27.15;10.00;;;;;;;4.41;100.00;97508.84;5037243;28;20406;-79
2024/03/19 05:07:30;;;;;;;30.63;10.80;;;;;;;4.43;100.00;97509.44;5034437;28;20424;-79
2024/03/19 05:09:56;;;;;;;23.83;9.07;;;;;;;4.38;100.00;97504.00;5032975;28;20403;-80
2024/03/19 05:12:22;;;;;;;29.63;9.82;;;;;;;4.36;100.00;97511.31;5038397;28;20411;-79
2024/03/19 05:14:50;;;;;;;28.77;9.60;;;;;;;4.37;100.00;97505.03;5038199;28;20685;-81
2024/03/19 05:17:16;;;;;;;26.30;9.43;;;;;;;4.37;100.00;97503.22;5041296;28;20415;-80
2024/03/19 05:19:42;;;;;;;24.23;9.53;;;;;;;4.31;100.00;97503.25;5030465;28;20405;-82
2024/03/19 05:22:09;;;;;;;25.33;9.18;;;;;;;4.31;100.00;97511.09;5041627;28;20403;-80
2024/03/19 05:24:35;;;;;;;23.80;8.63;;;;;;;4.27;100.00;97508.09;5046024;28;20404;-78
2024/03/19 05:27:02;;;;;;;18.83;7.57;;;;;;;4.27;100.00;97508.09;5029290;28;20415;-81
2024/03/19 05:29:28;;;;;;;23.77;8.45;;;;;;;4.28;100.00;97509.72;5037808;28;20399;-79
2024/03/19 05:31:56;;;;;;;24.27;8.73;;;;;;;4.31;100.00;97513.72;5041952;28;20399;-79
2024/03/19 05:34:22;;;;;;;20.58;8.07;;;;;;;4.25;100.00;97513.56;5039803;28;20397;-80
2024/03/19 05:36:48;;;;;;;16.40;7.35;;;;;;;4.25;100.00;97516.16;5031812;28;20407;-78
2024/03/19 05:39:14;;;;;;;15.95;6.32;;;;;;;4.24;100.00;97511.94;5031473;28;20423;-79
2024/03/19 05:41:40;;;;;;;17.45;6.65;;;;;;;4.24;100.00;97519.78;5040159;28;20916;-80
2024/03/19 05:44:07;;;;;;;16.50;7.00;;;;;;;4.27;100.00;97516.78;5024801;28;20776;-81
2024/03/19 05:46:33;;;;;;;20.00;7.45;;;;;;;4.28;100.00;97530.69;5035286;28;20961;-79
2024/03/19 05:49:01;;;;;;;18.17;6.97;;;;;;;4.26;100.00;97520.41;5040789;28;20443;-81
2024/03/19 05:51:27;;;;;;;15.40;6.37;;;;;;;4.27;100.00;97526.44;5040662;28;20426;-81
2024/03/19 05:53:53;;;;;;;14.88;6.43;;;;;;;4.27;100.00;97522.00;5039688;28;20757;-80
2024/03/19 05:56:19;;;;;;;15.15;7.35;;;;;;;4.29;100.00;97516.53;5037947;28;20403;-82
2024/03/19 05:58:45;;;;;;;15.48;6.93;;;;;;;4.32;100.00;97525.81;5037540;28;20414;-80
2024/03/19 06:01:12;;;;;;;20.08;7.63;;;;;;;4.33;100.00;97525.63;5038701;28;20395;-78
2024/03/19 06:03:38;;;;;;;16.95;7.03;;;;;;;4.32;100.00;97523.19;5036028;28;20395;-76
2024/03/19 06:06:09;;;;;;;14.80;6.15;;;;;;;4.33;100.00;97527.44;5025473;28;20401;-81
2024/03/19 06:08:39;;;;;;;14.35;5.93;;;;;;;4.33;100.00;97520.38;5038919;28;20912;-81
2024/03/19 06:11:12;;;;;;;18.42;6.93;;;;;;;4.36;100.00;97532.25;5036792;28;20871;-79
2024/03/19 06:13:38;;;;;;;19.90;7.50;;;;;;;4.38;100.00;97528.41;5025544;28;20405;-79
2024/03/19 06:16:05;;;;;;;14.15;6.53;;;;;;;4.42;100.00;97534.03;5040723;28;20865;-79
2024/03/19 06:18:31;;;;;;;11.60;5.80;;;;;;;4.43;100.00;97530.41;5031787;28;20831;-78
2024/03/19 06:20:57;;;;;;;13.02;5.95;;;;;;;4.48;100.00;97539.25;5037929;28;20394;-81
2024/03/19 06:23:25;;;;;;;9.57;5.40;;;;;;;4.50;100.00;97542.47;5031560;28;20432;-79
2024/03/19 06:25:51;;;;;;;13.15;5.40;;;;;;;4.55;100.00;97544.47;5027268;28;20494;-81
2024/03/19 06:28:17;;;;;;;9.03;4.77;;;;;;;4.58;100.00;97550.13;5029964;28;20415;-80
2024/03/19 06:30:44;;;;;;;14.07;6.15;;;;;;;4.63;100.00;97541.59;5037202;28;20395;-79
2024/03/19 06:33:10;;;;;;;16.63;6.80;;;;;;;4.69;100.00;97546.00;5037674;28;20414;-79
2024/03/19 06:35:37;;;;;;;14.00;5.95;;;;;;;4.75;100.00;97544.34;5031049;28;20395;-79
2024/03/19 06:38:03;;;;;;;20.27;7.85;;;;;;;4.85;100.00;97552.59;5036804;28;20537;-80
2024/03/19 06:40:31;;;;;;;17.23;7.07;;;;;;;4.94;100.00;97546.09;5036225;28;20780;-80
2024/03/19 06:42:58;;;;;;;17.38;7.53;;;;;;;5.03;100.00;97550.06;5040441;28;20391;-80
2024/03/19 06:45:26;;;;;;;14.48;6.38;;;;;;;5.11;100.00;97549.81;5041804;28;20403;-80
2024/03/19 06:47:53;;;;;;;19.27;7.45;;;;;;;5.23;100.00;97544.69;5031095;28;20829;-79
2024/03/19 06:50:19;;;;;;;16.88;7.05;;;;;;;5.32;100.00;97553.91;5022941;28;20412;-81
2024/03/19 06:52:45;;;;;;;13.75;6.00;;;;;;;5.40;100.00;97551.81;5034079;28;20410;-81
2024/03/19 06:55:12;;;;;;;12.35;5.53;;;;;;;5.44;100.00;97547.75;5037190;28;20449;-79
2024/03/19 06:57:40;;;;;;;18.30;7.03;;;;;;;5.49;100.00;97541.06;5028792;28;20409;-79
2024/03/19 07:00:13;;;;;;;24.55;9.65;;;;;;;5.55;100.00;97548.06;5026096;28;20768;-79
2024/03/19 07:02:40;;;;;;;21.35;8.20;;;;;;;5.61;100.00;97557.72;5033936;28;20695;-79
2024/03/19 07:05:08;;;;;;;17.60;7.53;;;;;;;5.70;100.00;97557.22;5027558;28;20399;-79
2024/03/19 07:07:35;;;;;;;18.67;6.82;;;;;;;5.80;100.00;97557.53;5033101;28;20493;-79
2024/03/19 07:10:01;;;;;;;20.52;8.00;;;;;;;5.88;100.00;97560.91;5033621;28;20391;-79
2024/03/19 07:12:28;;;;;;;15.13;6.60;;;;;;;5.97;100.00;97557.00;5035485;28;20453;-80
2024/03/19 07:14:57;;;;;;;14.80;6.22;;;;;;;6.07;100.00;97558.13;5037433;28;20399;-79
2024/03/19 07:17:23;;;;;;;12.85;5.30;;;;;;;6.20;100.00;97565.88;5032864;28;20407;-78
2024/03/19 07:19:49;;;;;;;12.10;5.03;;;;;;;6.34;100.00;97563.88;5033263;28;20448;-79
2024/03/19 07:22:15;;;;;;;14.07;5.78;;;;;;;6.52;100.00;97565.72;5033811;28;20807;-79
2024/03/19 07:24:41;;;;;;;12.48;5.20;;;;;;;6.75;100.00;97567.66;5032956;28;20486;-80
2024/03/19 07:27:07;;;;;;;14.07;5.15;;;;;;;6.96;100.00;97562.72;5029166;28;20408;-80
2024/03/19 07:29:34;;;;;;;12.65;5.30;;;;;;;7.18;100.00;97570.91;5028714;28;20456;-78
2024/03/19 07:32:01;;;;;;;11.00;4.88;;;;;;;7.39;100.00;97567.75;5030752;28;20807;-79
2024/03/19 07:34:27;;;;;;;15.80;5.82;;;;;;;7.55;100.00;97571.56;5022386;28;20403;-80
2024/03/19 07:36:54;;;;;;;9.93;4.68;;;;;;;7.70;100.00;97571.94;5022928;28;20434;-79
2024/03/19 07:39:20;;;;;;;10.85;5.07;;;;;;;7.82;100.00;97577.19;5024907;28;20434;-80
2024/03/19 07:41:47;;;;;;;6.85;3.60;;;;;;;7.94;100.00;97574.56;5033764;28;20433;-79
2024/03/19 07:44:13;;;;;;;6.32;3.42;;;;;;;8.05;100.00;97571.13;5025290;28;20399;-80
2024/03/19 07:46:39;;;;;;;4.53;2.97;;;;;;;8.14;100.00;97569.75;5017507;28;20507;-79
2024/03/19 07:49:07;;;;;;;4.40;3.30;;;;;;;8.27;100.00;97571.34;5033297;28;20507;-80
2024/03/19 07:51:33;;;;;;;3.83;2.80;;;;;;;8.38;100.00;97578.47;5033750;28;20490;-79
2024/03/19 07:53:59;;;;;;;3.40;2.60;;;;;;;8.49;100.00;97582.94;5031553;28;20541;-80
2024/03/19 07:56:30;;;;;;;4.57;3.03;;;;;;;8.59;100.00;97577.84;5027796;28;20399;-80
2024/03/19 07:58:57;;;;;;;3.13;2.55;;;;;;;8.68;100.00;97581.72;5033597;28;20911;-80
2024/03/19 08:01:23;;;;;;;2.97;2.28;;;;;;;8.78;100.00;97581.13;5027671;28;20401;-80
2024/03/19 08:03:49;;;;;;;5.03;3.17;;;;;;;8.88;100.00;97583.94;5023186;28;20412;-79
2024/03/19 08:06:17;;;;;;;3.70;2.70;;;;;;;9.01;100.00;97586.34;5033096;28;20391;-80
2024/03/19 08:08:43;;;;;;;3.03;2.38;;;;;;;9.18;100.00;97587.16;5033430;28;20419;-79
2024/03/19 08:11:10;;;;;;;2.53;2.27;;;;;;;9.35;100.00;97589.03;5029452;28;20451;-80
2024/03/19 08:13:36;;;;;;;3.50;2.72;;;;;;;9.50;100.00;97590.09;5029013;28;20402;-79
2024/03/19 08:16:03;;;;;;;2.47;2.10;;;;;;;9.66;100.00;97599.88;5033902;28;20399;-80
2024/03/19 08:18:29;;;;;;;3.03;2.58;;;;;;;9.81;100.00;97598.53;5019146;28;20416;-81
2024/03/19 08:20:55;;;;;;;2.95;2.20;;;;;;;9.97;100.00;97592.44;5024433;28;20445;-80
2024/03/19 08:23:23;;;;;;;2.55;2.10;;;;;;;10.12;100.00;97602.44;5033762;28;20399;-79
2024/03/19 08:25:49;;;;;;;2.30;2.00;;;;;;;10.24;100.00;97606.63;5032052;28;20402;-79
2024/03/19 08:28:15;;;;;;;3.00;1.60;;;;;;;10.36;100.00;97607.34;5026724;28;20415;-79
2024/03/19 08:30:41;;;;;;;2.72;1.88;;;;;;;10.44;100.00;97612.19;5033280;28;20490;-81
2024/03/19 08:33:08;;;;;;;2.50;1.80;;;;;;;10.61;100.00;97609.50;5025320;28;20438;-79
2024/03/19 08:35:34;;;;;;;3.70;2.60;;;;;;;10.79;100.00;97613.69;5025291;28;20395;-80
2024/03/19 08:38:02;;;;;;;3.20;2.40;;;;;;;11.00;100.00;97617.38;5033460;28;20411;-79
2024/03/19 08:40:30;;;;;;;2.90;2.17;;;;;;;11.20;100.00;97615.75;5033356;28;20489;-79
2024/03/19 08:42:56;;;;;;;4.47;2.50;;;;;;;11.36;100.00;97613.25;5033115;28;20403;-79
2024/03/19 08:45:24;;;;;;;2.33;2.00;;;;;;;11.54;100.00;97615.56;5031220;28;20490;-78
2024/03/19 08:47:54;;;;;;;4.65;2.00;;;;;;;11.69;100.00;97617.53;5031372;28;20427;-79
2024/03/19 08:50:20;;;;;;;3.00;2.10;;;;;;;11.77;100.00;97620.56;5023501;28;20453;-79
2024/03/19 08:52:46;;;;;;;2.20;1.85;;;;;;;11.89;100.00;97625.69;5031070;28;20955;-79
2024/03/19 08:55:12;;;;;;;1.85;1.65;;;;;;;11.99;100.00;97621.28;5027265;28;20412;-79
2024/03/19 08:57:40;;;;;;;1.50;1.40;;;;;;;12.11;100.00;97618.44;5026733;28;20407;-78
2024/03/19 09:00:15;;;;;;;1.30;1.20;;;;;;;12.25;100.00;97621.47;5019654;28;20455;-79
2024/03/19 09:02:41;;;;;;;1.30;1.20;;;;;;;12.43;100.00;97622.88;5028813;28;20398;-78
2024/03/19 09:05:08;;;;;;;2.40;1.27;;;;;;;12.62;100.00;97622.22;5035012;28;20478;-79
2024/03/19 09:07:36;;;;;;;1.40;1.30;;;;;;;12.82;100.00;97610.88;5034923;28;20927;-79
2024/03/19 09:10:03;;;;;;;2.10;1.90;;;;;;;12.86;100.00;97617.25;5036285;28;20399;-80
2024/03/19 09:12:29;;;;;;;2.40;1.77;;;;;;;12.83;100.00;97620.44;5038146;28;20833;-79
2024/03/19 09:14:57;;;;;;;1.77;1.43;;;;;;;12.74;100.00;97620.16;5028720;28;20815;-79
2024/03/19 09:17:23;;;;;;;2.05;1.30;;;;;;;12.67;100.00;97621.44;5029426;28;20398;-79
2024/03/19 09:19:49;;;;;;;1.40;1.30;;;;;;;12.58;100.00;97617.66;5037222;28;20903;-79
2024/03/19 09:22:16;;;;;;;3.42;2.10;;;;;;;12.48;100.00;97621.06;5036225;28;20391;-79
2024/03/19 09:24:42;;;;;;;2.47;1.92;;;;;;;12.42;100.00;97624.75;5035915;28;20394;-80
2024/03/19 09:27:08;;;;;;;2.60;2.10;;;;;;;12.36;100.00;97628.44;5027833;28;20453;-78
2024/03/19 09:29:35;;;;;;;1.98;1.70;;;;;;;12.33;100.00;97627.06;5035966;28;20434;-79
2024/03/19 09:32:03;;;;;;;1.40;1.30;;;;;;;12.35;100.00;97626.81;5035892;28;20426;-79
2024/03/19 09:34:30;;;;;;;1.70;1.60;;;;;;;12.37;100.00;97627.38;5028969;28;20447;-79
2024/03/19 09:36:56;;;;;;;1.88;1.52;;;;;;;12.42;100.00;97630.06;5033201;28;20403;-79
2024/03/19 09:39:23;;;;;;;1.50;1.40;;;;;;;12.45;100.00;97626.09;5038603;28;20439;-79
2024/03/19 09:42:00;;;;;;;1.67;1.50;;;;;;;12.53;100.00;97625.63;5032148;28;20396;-80
2024/03/19 09:44:28;;;;;;;1.60;1.27;;;;;;;12.63;100.00;97631.00;5036129;28;20395;-80
2024/03/19 09:46:56;;;;;;;1.40;1.30;;;;;;;12.75;100.00;97627.06;5037123;28;20442;-78
2024/03/19 09:49:28;;;;;;;1.55;1.40;;;;;;;12.93;100.00;97630.34;5036075;28;20465;-78
2024/03/19 09:51:55;;;;;;;1.73;1.42;;;;;;;13.07;100.00;97636.75;5026280;28;20401;-79
2024/03/19 09:54:23;;;;;;;1.80;1.42;;;;;;;13.18;100.00;97635.75;5034416;28;20839;-79
2024/03/19 09:56:50;;;;;;;2.08;1.50;;;;;;;13.24;100.00;97633.91;5034156;28;20391;-79
2024/03/19 09:59:16;;;;;;;1.87;1.57;;;;;;;13.30;100.00;97640.84;5026438;28;20454;-79
2024/03/19 10:01:43;;;;;;;1.75;1.50;;;;;;;13.37;100.00;97636.09;5025650;28;20406;-79
2024/03/19 10:04:14;;;;;;;1.23;1.10;;;;;;;13.53;100.00;97632.41;5034087;28;20407;-78
2024/03/19 10:06:42;;;;;;;2.38;1.60;;;;;;;13.79;100.00;97630.56;5034200;28;20481;-79
2024/03/19 10:09:09;;;;;;;1.55;1.38;;;;;;;14.17;100.00;97634.53;5034594;28;20415;-79
2024/03/19 10:11:35;;;;;;;1.95;1.42;;;;;;;14.73;100.00;97624.63;5028345;28;20400;-77
2024/03/19 10:14:02;;;;;;;2.72;1.85;;;;;;;15.30;100.00;97637.44;5018693;28;20407;-79
2024/03/19 10:16:30;;;;;;;2.20;1.50;;;;;;;15.96;100.00;97631.69;5030007;28;20398;-78
2024/03/19 10:18:57;;;;;;;3.63;1.60;;;;;;;16.35;100.00;97633.47;5023221;28;20405;-78
2024/03/19 10:21:23;;;;;;;4.38;2.60;;;;;;;16.66;100.00;97637.47;5018513;28;20905;-78
2024/03/19 10:23:51;;;;;;;2.50;1.80;;;;;;;17.13;100.00;97630.53;5027438;28;20492;-77
2024/03/19 10:26:18;;;;;;;3.03;1.80;;;;;;;17.79;100.00;97636.59;5032141;28;20465;-78
2024/03/19 10:28:46;;;;;;;2.08;1.30;;;;;;;18.38;100.00;97639.63;5034632;28;20411;-77
2024/03/19 10:31:12;;;;;;;2.00;1.27;;;;;;;19.02;100.00;97641.41;5035930;28;20422;-78
2024/03/19 10:33:41;;;;;;;2.23;1.07;;;;;;;19.84;100.00;97632.44;5024840;28;20881;-79
2024/03/19 10:36:19;;;;;;;3.92;1.27;;;;;;;20.52;100.00;97629.41;5023022;28;20396;-78
2024/03/19 10:38:45;;;;;;;1.25;0.90;;;;;;;21.31;100.00;97634.75;5025935;28;20802;-80
2024/03/19 10:41:14;;;;;;;1.77;1.08;;;;;;;22.01;100.00;97636.41;5032951;28;20886;-79
2024/03/19 10:43:42;;;;;;;1.38;0.90;;;;;;;22.74;100.00;97621.81;5026265;28;20846;-79
2024/03/19 10:46:10;;;;;;;2.53;1.17;;;;;;;23.38;100.00;97594.59;5028148;28;20874;-80
2024/03/19 10:48:37;;;;;;;1.40;1.08;;;;;;;23.75;100.00;97579.41;5026348;28;20857;-80
2024/03/19 10:51:04;;;;;;;2.70;1.75;;;;;;;23.63;100.00;97557.72;5037865;28;20497;-79
2024/03/19 10:53:31;;;;;;;1.40;1.20;;;;;;;23.75;100.00;97570.53;5037801;28;20396;-78
2024/03/19 10:56:02;;;;;;;1.75;1.35;;;;;;;23.79;100.00;97572.22;5034191;28;20438;-79
2024/03/19 10:58:30;;;;;;;2.30;1.40;;;;;;;23.39;100.00;97565.69;5023066;28;20478;-79
2024/03/19 11:01:01;;;;;;;2.38;1.70;;;;;;;23.02;100.00;97562.75;5031312;28;20398;-79
2024/03/19 11:03:28;;;;;;;2.80;1.92;;;;;;;22.70;100.00;97572.25;5024634;28;20434;-82
2024/03/19 11:06:00;;;;;;;2.55;1.50;;;;;;;23.05;100.00;97574.81;5027336;28;20485;-79
2024/03/19 11:08:27;;;;;;;1.95;1.20;;;;;;;23.44;100.00;97574.41;5029754;28;20814;-80
2024/03/19 11:11:06;;;;;;;1.58;1.10;;;;;;;24.01;100.00;97579.16;5031837;28;20401;-80
2024/03/19 11:13:37;;;;;;;1.95;1.20;;;;;;;24.72;100.00;97572.69;5021684;28;20412;-80
2024/03/19 11:16:12;;;;;;;2.13;1.30;;;;;;;25.05;100.00;97570.66;5040173;28;20486;-79
2024/03/19 11:18:43;;;;;;;2.65;1.65;;;;;;;25.68;100.00;97565.56;5031907;28;20810;-81
2024/03/19 11:21:18;;;;;;;2.80;1.20;;;;;;;26.18;100.00;97567.69;5039571;28;20395;-80
2024/03/19 11:23:47;;;;;;;1.30;1.00;;;;;;;26.65;100.00;97567.75;5040525;28;20452;-77
2024/03/19 11:26:15;;;;;;;2.90;1.00;;;;;;;27.12;100.00;97567.72;5025920;28;20453;-80